sensor_id;sensor_type;location;lat;lon;timestamp;pressure;altitude;pressure_sealevel;temperature;humidity
46015;BME280;36844;51.898;-0.874;2023-04-15T00:01:58;99814.41;;;18.25;
46015;BME280;36844;51.898;-0.874;2023-04-15T00:04:24;99814.09;;;18.23;
46015;BME280;36844;51.898;-0.874;2023-04-15T00:06:52;99817.94;;;18.22;
46015;BME280;36844;51.898;-0.874;2023-04-15T00:09:18;99823.03;;;18.20;
46015;BME280;36844;51.898;-0.874;2023-04-15T00:11:44;99817.25;;;18.18;
46015;BME280;36844;51.898;-0.874;2023-04-15T00:14:10;99821.88;;;18.17;
46015;BME280;36844;51.898;-0.874;2023-04-15T00:16:36;99831.91;;;18.17;
46015;BME280;36844;51.898;-0.874;2023-04-15T00:19:01;99833.47;;;18.14;
46015;BME280;36844;51.898;-0.874;2023-04-15T00:21:26;99829.28;;;18.13;
46015;BME280;36844;51.898;-0.874;2023-04-15T00:23:53;99838.53;;;18.12;
46015;BME280;36844;51.898;-0.874;2023-04-15T00:26:18;99838.94;;;18.11;
46015;BME280;36844;51.898;-0.874;2023-04-15T00:31:09;99832.09;;;18.06;
46015;BME280;36844;51.898;-0.874;2023-04-15T00:33:35;99836.72;;;18.06;
46015;BME280;36844;51.898;-0.874;2023-04-15T00:36:00;99833.66;;;18.04;
46015;BME280;36844;51.898;-0.874;2023-04-15T00:38:26;99843.69;;;18.03;
46015;BME280;36844;51.898;-0.874;2023-04-15T00:40:52;99842.59;;;18.01;
46015;BME280;36844;51.898;-0.874;2023-04-15T00:43:17;99840.66;;;18.01;
46015;BME280;36844;51.898;-0.874;2023-04-15T00:45:43;99844.94;;;17.99;
46015;BME280;36844;51.898;-0.874;2023-04-15T00:48:08;99842.66;;;17.97;
46015;BME280;36844;51.898;-0.874;2023-04-15T00:50:34;99850.72;;;17.97;
46015;BME280;36844;51.898;-0.874;2023-04-15T00:52:59;99844.97;;;17.95;
46015;BME280;36844;51.898;-0.874;2023-04-15T00:55:25;99856.16;;;17.94;
46015;BME280;36844;51.898;-0.874;2023-04-15T00:57:50;99860.03;;;17.93;
46015;BME280;36844;51.898;-0.874;2023-04-15T01:00:16;99863.91;;;17.92;
46015;BME280;36844;51.898;-0.874;2023-04-15T01:02:42;99873.13;;;17.91;
46015;BME280;36844;51.898;-0.874;2023-04-15T01:05:07;99872.78;;;17.89;
46015;BME280;36844;51.898;-0.874;2023-04-15T01:07:33;99878.16;;;17.89;
46015;BME280;36844;51.898;-0.874;2023-04-15T01:09:58;99877.81;;;17.87;
46015;BME280;36844;51.898;-0.874;2023-04-15T01:12:25;99885.13;;;17.86;
46015;BME280;36844;51.898;-0.874;2023-04-15T01:14:50;99892.47;;;17.86;
46015;BME280;36844;51.898;-0.874;2023-04-15T01:17:16;99884.78;;;17.84;
46015;BME280;36844;51.898;-0.874;2023-04-15T01:19:41;99901.34;;;17.83;
46015;BME280;36844;51.898;-0.874;2023-04-15T01:22:06;99892.53;;;17.82;
46015;BME280;36844;51.898;-0.874;2023-04-15T01:24:32;99899.06;;;17.81;
46015;BME280;36844;51.898;-0.874;2023-04-15T01:26:58;99899.47;;;17.80;
46015;BME280;36844;51.898;-0.874;2023-04-15T01:29:23;99904.09;;;17.79;
46015;BME280;36844;51.898;-0.874;2023-04-15T01:31:51;99901.03;;;17.77;
46015;BME280;36844;51.898;-0.874;2023-04-15T01:34:17;99908.00;;;17.74;
46015;BME280;36844;51.898;-0.874;2023-04-15T01:36:42;99901.84;;;17.74;
46015;BME280;36844;51.898;-0.874;2023-04-15T01:39:08;99910.34;;;17.72;
46015;BME280;36844;51.898;-0.874;2023-04-15T01:41:33;99920.34;;;17.72;
46015;BME280;36844;51.898;-0.874;2023-04-15T01:43:58;99918.06;;;17.70;
46015;BME280;36844;51.898;-0.874;2023-04-15T01:46:24;99920.75;;;17.70;
46015;BME280;36844;51.898;-0.874;2023-04-15T01:48:49;99918.47;;;17.69;
46015;BME280;36844;51.898;-0.874;2023-04-15T01:51:15;99913.47;;;17.67;
46015;BME280;36844;51.898;-0.874;2023-04-15T01:53:40;99927.34;;;17.66;
46015;BME280;36844;51.898;-0.874;2023-04-15T01:56:05;99927.34;;;17.66;
46015;BME280;36844;51.898;-0.874;2023-04-15T01:58:31;99936.63;;;17.65;
46015;BME280;36844;51.898;-0.874;2023-04-15T02:00:56;99938.91;;;17.63;
46015;BME280;36844;51.898;-0.874;2023-04-15T02:03:23;99945.06;;;17.63;
46015;BME280;36844;51.898;-0.874;2023-04-15T02:05:48;99943.19;;;17.60;
46015;BME280;36844;51.898;-0.874;2023-04-15T02:08:15;99962.06;;;17.60;
46015;BME280;36844;51.898;-0.874;2023-04-15T02:10:40;99959.75;;;17.59;
46015;BME280;36844;51.898;-0.874;2023-04-15T02:13:05;99960.50;;;17.59;
46015;BME280;36844;51.898;-0.874;2023-04-15T02:15:31;99960.19;;;17.57;
46015;BME280;36844;51.898;-0.874;2023-04-15T02:17:57;99968.25;;;17.57;
46015;BME280;36844;51.898;-0.874;2023-04-15T02:20:24;99967.84;;;17.55;
46015;BME280;36844;51.898;-0.874;2023-04-15T02:22:50;99975.19;;;17.55;
46015;BME280;36844;51.898;-0.874;2023-04-15T02:25:16;99977.16;;;17.54;
46015;BME280;36844;51.898;-0.874;2023-04-15T02:27:41;99981.00;;;17.53;
46015;BME280;36844;51.898;-0.874;2023-04-15T02:30:08;99976.75;;;17.52;
46015;BME280;36844;51.898;-0.874;2023-04-15T02:32:34;99985.28;;;17.51;
46015;BME280;36844;51.898;-0.874;2023-04-15T02:35:06;99979.13;;;17.50;
46015;BME280;36844;51.898;-0.874;2023-04-15T02:37:31;99996.41;;;17.49;
46015;BME280;36844;51.898;-0.874;2023-04-15T02:39:59;99987.56;;;17.49;
46015;BME280;36844;51.898;-0.874;2023-04-15T02:42:25;99989.94;;;17.47;
46015;BME280;36844;51.898;-0.874;2023-04-15T02:44:52;99994.53;;;17.46;
46015;BME280;36844;51.898;-0.874;2023-04-15T02:47:19;99999.94;;;17.46;
46015;BME280;36844;51.898;-0.874;2023-04-15T02:49:44;99991.84;;;17.46;
46015;BME280;36844;51.898;-0.874;2023-04-15T02:52:09;99999.53;;;17.44;
46015;BME280;36844;51.898;-0.874;2023-04-15T02:54:35;100000.75;;;17.43;
46015;BME280;36844;51.898;-0.874;2023-04-15T02:57:00;100004.59;;;17.42;
46015;BME280;36844;51.898;-0.874;2023-04-15T02:59:25;100008.44;;;17.41;
46015;BME280;36844;51.898;-0.874;2023-04-15T03:01:51;100013.03;;;17.41;
46015;BME280;36844;51.898;-0.874;2023-04-15T03:04:16;100014.97;;;17.40;
46015;BME280;36844;51.898;-0.874;2023-04-15T03:06:41;100031.53;;;17.39;
46015;BME280;36844;51.898;-0.874;2023-04-15T03:09:06;100028.47;;;17.37;
46015;BME280;36844;51.898;-0.874;2023-04-15T03:11:32;100034.63;;;17.37;
46015;BME280;36844;51.898;-0.874;2023-04-15T03:13:57;100041.16;;;17.36;
46015;BME280;36844;51.898;-0.874;2023-04-15T03:16:23;100050.44;;;17.35;
46015;BME280;36844;51.898;-0.874;2023-04-15T03:18:48;100049.66;;;17.35;
46015;BME280;36844;51.898;-0.874;2023-04-15T03:21:13;100050.03;;;17.33;
46015;BME280;36844;51.898;-0.874;2023-04-15T03:23:38;100053.50;;;17.34;
46015;BME280;36844;51.898;-0.874;2023-04-15T03:26:04;100050.47;;;17.32;
46015;BME280;36844;51.898;-0.874;2023-04-15T03:28:29;100052.38;;;17.31;
46015;BME280;36844;51.898;-0.874;2023-04-15T03:30:55;100056.22;;;17.30;
46015;BME280;36844;51.898;-0.874;2023-04-15T03:33:20;100058.16;;;17.30;
46015;BME280;36844;51.898;-0.874;2023-04-15T03:35:45;100064.66;;;17.29;
46015;BME280;36844;51.898;-0.874;2023-04-15T03:38:11;100065.44;;;17.29;
46015;BME280;36844;51.898;-0.874;2023-04-15T03:40:36;100063.97;;;17.28;
46015;BME280;36844;51.898;-0.874;2023-04-15T03:43:01;100064.34;;;17.27;
46015;BME280;36844;51.898;-0.874;2023-04-15T03:45:26;100079.72;;;17.26;
46015;BME280;36844;51.898;-0.874;2023-04-15T03:47:52;100075.47;;;17.25;
46015;BME280;36844;51.898;-0.874;2023-04-15T03:50:17;100087.44;;;17.24;
46015;BME280;36844;51.898;-0.874;2023-04-15T03:52:43;100089.38;;;17.24;
46015;BME280;36844;51.898;-0.874;2023-04-15T03:55:08;100100.13;;;17.24;
46015;BME280;36844;51.898;-0.874;2023-04-15T03:57:33;100095.13;;;17.22;
46015;BME280;36844;51.898;-0.874;2023-04-15T04:00:02;100103.19;;;17.22;
46015;BME280;36844;51.898;-0.874;2023-04-15T04:02:28;100106.28;;;17.21;
46015;BME280;36844;51.898;-0.874;2023-04-15T04:04:53;100115.13;;;17.21;
46015;BME280;36844;51.898;-0.874;2023-04-15T04:07:18;100119.00;;;17.20;
46015;BME280;36844;51.898;-0.874;2023-04-15T04:09:43;100120.16;;;17.19;
46015;BME280;36844;51.898;-0.874;2023-04-15T04:12:08;100123.22;;;17.18;
46015;BME280;36844;51.898;-0.874;2023-04-15T04:14:34;100136.28;;;17.19;
46015;BME280;36844;51.898;-0.874;2023-04-15T04:16:59;100135.91;;;17.17;
46015;BME280;36844;51.898;-0.874;2023-04-15T04:19:24;100148.63;;;17.17;
46015;BME280;36844;51.898;-0.874;2023-04-15T04:21:50;100145.16;;;17.16;
46015;BME280;36844;51.898;-0.874;2023-04-15T04:24:15;100149.78;;;17.16;
46015;BME280;36844;51.898;-0.874;2023-04-15T04:26:41;100155.53;;;17.14;
46015;BME280;36844;51.898;-0.874;2023-04-15T04:29:06;100154.78;;;17.14;
46015;BME280;36844;51.898;-0.874;2023-04-15T04:31:32;100149.81;;;17.12;
46015;BME280;36844;51.898;-0.874;2023-04-15T04:33:57;100167.09;;;17.11;
46015;BME280;36844;51.898;-0.874;2023-04-15T04:36:22;100161.72;;;17.11;
46015;BME280;36844;51.898;-0.874;2023-04-15T04:38:47;100171.72;;;17.11;
46015;BME280;36844;51.898;-0.874;2023-04-15T04:41:12;100177.09;;;17.11;
46015;BME280;36844;51.898;-0.874;2023-04-15T04:43:38;100178.66;;;17.08;
46015;BME280;36844;51.898;-0.874;2023-04-15T04:46:03;100188.25;;;17.09;
46015;BME280;36844;51.898;-0.874;2023-04-15T04:48:28;100185.97;;;17.08;
46015;BME280;36844;51.898;-0.874;2023-04-15T04:50:53;100187.88;;;17.07;
46015;BME280;36844;51.898;-0.874;2023-04-15T04:53:19;100196.34;;;17.06;
46015;BME280;36844;51.898;-0.874;2023-04-15T04:55:44;100210.56;;;17.06;
46015;BME280;36844;51.898;-0.874;2023-04-15T04:58:09;100206.38;;;17.05;
46015;BME280;36844;51.898;-0.874;2023-04-15T05:00:35;100215.59;;;17.04;
46015;BME280;36844;51.898;-0.874;2023-04-15T05:03:01;100222.88;;;17.04;
46015;BME280;36844;51.898;-0.874;2023-04-15T05:05:27;100231.72;;;17.04;
46015;BME280;36844;51.898;-0.874;2023-04-15T05:07:52;100234.78;;;17.03;
46015;BME280;36844;51.898;-0.874;2023-04-15T05:10:17;100250.94;;;17.03;
46015;BME280;36844;51.898;-0.874;2023-04-15T05:12:42;100252.09;;;17.02;
46015;BME280;36844;51.898;-0.874;2023-04-15T05:15:08;100245.19;;;17.01;
46015;BME280;36844;51.898;-0.874;2023-04-15T05:17:33;100246.34;;;17.00;
46015;BME280;36844;51.898;-0.874;2023-04-15T05:19:59;100257.88;;;17.00;
46015;BME280;36844;51.898;-0.874;2023-04-15T05:22:24;100252.13;;;16.98;
46015;BME280;36844;51.898;-0.874;2023-04-15T05:24:50;100259.41;;;16.98;
46015;BME280;36844;51.898;-0.874;2023-04-15T05:27:15;100266.75;;;16.97;
46015;BME280;36844;51.898;-0.874;2023-04-15T05:29:40;100275.97;;;16.96;
46015;BME280;36844;51.898;-0.874;2023-04-15T05:32:05;100281.34;;;16.96;
46015;BME280;36844;51.898;-0.874;2023-04-15T05:34:31;100279.03;;;16.95;
46015;BME280;36844;51.898;-0.874;2023-04-15T05:36:56;100289.03;;;16.94;
46015;BME280;36844;51.898;-0.874;2023-04-15T05:39:21;100295.59;;;16.93;
46015;BME280;36844;51.898;-0.874;2023-04-15T05:41:46;100296.34;;;16.94;
46015;BME280;36844;51.898;-0.874;2023-04-15T05:44:11;100299.78;;;16.94;
46015;BME280;36844;51.898;-0.874;2023-04-15T05:46:37;100301.72;;;16.94;
46015;BME280;36844;51.898;-0.874;2023-04-15T05:49:02;100309.81;;;16.94;
46015;BME280;36844;51.898;-0.874;2023-04-15T05:51:27;100312.50;;;16.94;
46015;BME280;36844;51.898;-0.874;2023-04-15T05:53:52;100321.31;;;16.94;
46015;BME280;36844;51.898;-0.874;2023-04-15T05:56:18;100325.50;;;16.95;
46015;BME280;36844;51.898;-0.874;2023-04-15T05:58:44;100339.75;;;16.96;
46015;BME280;36844;51.898;-0.874;2023-04-15T06:01:09;100339.38;;;16.97;
46015;BME280;36844;51.898;-0.874;2023-04-15T06:03:35;100350.88;;;16.98;
46015;BME280;36844;51.898;-0.874;2023-04-15T06:06:01;100357.41;;;17.00;
46015;BME280;36844;51.898;-0.874;2023-04-15T06:08:27;100357.78;;;17.02;
46015;BME280;36844;51.898;-0.874;2023-04-15T06:10:52;100366.25;;;17.04;
46015;BME280;36844;51.898;-0.874;2023-04-15T06:13:18;100369.31;;;17.06;
46015;BME280;36844;51.898;-0.874;2023-04-15T06:15:43;100363.91;;;17.10;
46015;BME280;36844;51.898;-0.874;2023-04-15T06:18:08;100375.84;;;17.12;
46015;BME280;36844;51.898;-0.874;2023-04-15T06:20:33;100373.91;;;17.16;
46015;BME280;36844;51.898;-0.874;2023-04-15T06:22:59;100378.50;;;17.19;
46015;BME280;36844;51.898;-0.874;2023-04-15T06:25:24;100386.19;;;17.24;
46015;BME280;36844;51.898;-0.874;2023-04-15T06:27:49;100386.16;;;17.28;
46015;BME280;36844;51.898;-0.874;2023-04-15T06:30:14;100397.69;;;17.32;
46015;BME280;36844;51.898;-0.874;2023-04-15T06:32:40;100404.53;;;17.36;
46015;BME280;36844;51.898;-0.874;2023-04-15T06:35:05;100404.53;;;17.40;
46015;BME280;36844;51.898;-0.874;2023-04-15T06:37:30;100410.66;;;17.44;
46015;BME280;36844;51.898;-0.874;2023-04-15T06:39:56;100421.03;;;17.49;
46015;BME280;36844;51.898;-0.874;2023-04-15T06:42:22;100422.94;;;17.52;
46015;BME280;36844;51.898;-0.874;2023-04-15T06:44:47;100416.78;;;17.55;
46015;BME280;36844;51.898;-0.874;2023-04-15T06:47:12;100426.78;;;17.58;
46015;BME280;36844;51.898;-0.874;2023-04-15T06:49:38;100427.53;;;17.62;
46015;BME280;36844;51.898;-0.874;2023-04-15T06:52:04;100441.00;;;17.65;
46015;BME280;36844;51.898;-0.874;2023-04-15T06:54:29;100446.72;;;17.67;
46015;BME280;36844;51.898;-0.874;2023-04-15T06:56:54;100455.97;;;17.70;
46015;BME280;36844;51.898;-0.874;2023-04-15T06:59:20;100456.34;;;17.72;
46015;BME280;36844;51.898;-0.874;2023-04-15T07:01:45;100461.31;;;17.73;
46015;BME280;36844;51.898;-0.874;2023-04-15T07:04:10;100459.00;;;17.75;
46015;BME280;36844;51.898;-0.874;2023-04-15T07:06:36;100467.47;;;17.77;
46015;BME280;36844;51.898;-0.874;2023-04-15T07:09:01;100477.47;;;17.81;
46015;BME280;36844;51.898;-0.874;2023-04-15T07:11:27;100473.59;;;17.82;
46015;BME280;36844;51.898;-0.874;2023-04-15T07:13:52;100480.91;;;17.81;
46015;BME280;36844;51.898;-0.874;2023-04-15T07:16:17;100477.81;;;17.83;
46015;BME280;36844;51.898;-0.874;2023-04-15T07:18:43;100488.97;;;17.85;
46015;BME280;36844;51.898;-0.874;2023-04-15T07:21:08;100491.66;;;17.85;
46015;BME280;36844;51.898;-0.874;2023-04-15T07:23:33;100496.66;;;17.86;
46015;BME280;36844;51.898;-0.874;2023-04-15T07:25:58;100496.66;;;17.86;
46015;BME280;36844;51.898;-0.874;2023-04-15T07:28:24;100498.97;;;17.88;
46015;BME280;36844;51.898;-0.874;2023-04-15T07:30:49;100509.38;;;17.89;
46015;BME280;36844;51.898;-0.874;2023-04-15T07:33:14;100512.44;;;17.91;
46015;BME280;36844;51.898;-0.874;2023-04-15T07:35:40;100517.44;;;17.93;
46015;BME280;36844;51.898;-0.874;2023-04-15T07:38:05;100528.19;;;17.93;
46015;BME280;36844;51.898;-0.874;2023-04-15T07:40:31;100525.88;;;17.95;
46015;BME280;36844;51.898;-0.874;2023-04-15T07:42:56;100530.09;;;17.96;
46015;BME280;36844;51.898;-0.874;2023-04-15T07:45:22;100537.81;;;17.97;
46015;BME280;36844;51.898;-0.874;2023-04-15T07:47:47;100540.13;;;17.99;
46015;BME280;36844;51.898;-0.874;2023-04-15T07:50:12;100549.72;;;18.00;
46015;BME280;36844;51.898;-0.874;2023-04-15T07:52:38;100556.66;;;18.01;
46015;BME280;36844;51.898;-0.874;2023-04-15T07:55:04;100553.56;;;18.02;
46015;BME280;36844;51.898;-0.874;2023-04-15T07:57:31;100548.94;;;18.03;
46015;BME280;36844;51.898;-0.874;2023-04-15T07:59:56;100557.41;;;18.05;
46015;BME280;36844;51.898;-0.874;2023-04-15T08:02:21;100560.88;;;18.05;
46015;BME280;36844;51.898;-0.874;2023-04-15T08:04:46;100560.88;;;18.05;
46015;BME280;36844;51.898;-0.874;2023-04-15T08:07:12;100563.16;;;18.07;
46015;BME280;36844;51.898;-0.874;2023-04-15T08:09:37;100579.31;;;18.07;
46015;BME280;36844;51.898;-0.874;2023-04-15T08:12:03;100591.66;;;18.08;
46015;BME280;36844;51.898;-0.874;2023-04-15T08:14:28;100595.50;;;18.07;
46015;BME280;36844;51.898;-0.874;2023-04-15T08:16:53;100598.19;;;18.07;
46015;BME280;36844;51.898;-0.874;2023-04-15T08:19:18;100607.84;;;18.08;
46015;BME280;36844;51.898;-0.874;2023-04-15T08:21:44;100602.44;;;18.08;
46015;BME280;36844;51.898;-0.874;2023-04-15T08:24:10;100609.38;;;18.09;
46015;BME280;36844;51.898;-0.874;2023-04-15T08:26:35;100617.47;;;18.09;
46015;BME280;36844;51.898;-0.874;2023-04-15T08:29:00;100617.03;;;18.10;
46015;BME280;36844;51.898;-0.874;2023-04-15T08:31:26;100614.34;;;18.10;
46015;BME280;36844;51.898;-0.874;2023-04-15T08:33:53;100621.28;;;18.11;
46015;BME280;36844;51.898;-0.874;2023-04-15T08:36:20;100628.25;;;18.12;
46015;BME280;36844;51.898;-0.874;2023-04-15T08:38:46;100635.91;;;18.14;
46015;BME280;36844;51.898;-0.874;2023-04-15T08:41:19;100630.91;;;18.16;
46015;BME280;36844;51.898;-0.874;2023-04-15T08:43:48;100633.59;;;18.16;
46015;BME280;36844;51.898;-0.874;2023-04-15T08:46:15;100644.41;;;18.16;
46015;BME280;36844;51.898;-0.874;2023-04-15T08:48:41;100647.44;;;18.18;
46015;BME280;36844;51.898;-0.874;2023-04-15T08:51:07;100647.44;;;18.18;
46015;BME280;36844;51.898;-0.874;2023-04-15T08:53:33;100657.09;;;18.19;
46015;BME280;36844;51.898;-0.874;2023-04-15T08:55:59;100661.31;;;18.20;
46015;BME280;36844;51.898;-0.874;2023-04-15T08:58:28;100674.81;;;18.20;
46015;BME280;36844;51.898;-0.874;2023-04-15T09:00:53;100673.59;;;18.21;
46015;BME280;36844;51.898;-0.874;2023-04-15T09:03:20;100682.47;;;18.21;
46015;BME280;36844;51.898;-0.874;2023-04-15T09:05:47;100685.94;;;18.22;
46015;BME280;36844;51.898;-0.874;2023-04-15T09:08:13;100691.34;;;18.22;
46015;BME280;36844;51.898;-0.874;2023-04-15T09:10:39;100689.41;;;18.22;
46015;BME280;36844;51.898;-0.874;2023-04-15T09:13:04;100690.97;;;18.23;
46015;BME280;36844;51.898;-0.874;2023-04-15T09:15:29;100695.59;;;18.23;
46015;BME280;36844;51.898;-0.874;2023-04-15T09:17:57;100706.38;;;18.23;
46015;BME280;36844;51.898;-0.874;2023-04-15T09:20:22;100703.69;;;18.23;
46015;BME280;36844;51.898;-0.874;2023-04-15T09:22:47;100706.38;;;18.23;
46015;BME280;36844;51.898;-0.874;2023-04-15T09:27:52;100707.16;;;18.23;
46015;BME280;36844;51.898;-0.874;2023-04-15T09:30:17;100711.38;;;18.24;
46015;BME280;36844;51.898;-0.874;2023-04-15T09:32:52;100714.81;;;18.25;
46015;BME280;36844;51.898;-0.874;2023-04-15T09:35:18;100725.59;;;18.25;
46015;BME280;36844;51.898;-0.874;2023-04-15T09:37:44;100729.84;;;18.26;
46015;BME280;36844;51.898;-0.874;2023-04-15T09:40:09;100735.22;;;18.26;
46015;BME280;36844;51.898;-0.874;2023-04-15T09:42:35;100744.88;;;18.27;
46015;BME280;36844;51.898;-0.874;2023-04-15T09:45:07;100736.03;;;18.23;
46015;BME280;36844;51.898;-0.874;2023-04-15T09:47:32;100744.88;;;18.27;
46015;BME280;36844;51.898;-0.874;2023-04-15T09:49:58;100750.28;;;18.27;
46015;BME280;36844;51.898;-0.874;2023-04-15T09:52:24;100744.88;;;18.27;
46015;BME280;36844;51.898;-0.874;2023-04-15T09:54:49;100747.56;;;18.27;
46015;BME280;36844;51.898;-0.874;2023-04-15T09:57:16;100754.53;;;18.28;
46015;BME280;36844;51.898;-0.874;2023-04-15T09:59:42;100753.31;;;18.29;
46015;BME280;36844;51.898;-0.874;2023-04-15T10:02:07;100749.84;;;18.28;
46015;BME280;36844;51.898;-0.874;2023-04-15T10:04:37;100758.34;;;18.30;
46015;BME280;36844;51.898;-0.874;2023-04-15T10:07:04;100759.13;;;18.31;
46015;BME280;36844;51.898;-0.874;2023-04-15T10:09:30;100761.41;;;18.32;
46015;BME280;36844;51.898;-0.874;2023-04-15T10:11:55;100758.69;;;18.32;
46015;BME280;36844;51.898;-0.874;2023-04-15T10:14:21;100760.66;;;18.32;
46015;BME280;36844;51.898;-0.874;2023-04-15T10:16:46;100760.66;;;18.32;
46015;BME280;36844;51.898;-0.874;2023-04-15T10:19:13;100764.88;;;18.33;
46015;BME280;36844;51.898;-0.874;2023-04-15T10:21:40;100779.13;;;18.33;
46015;BME280;36844;51.898;-0.874;2023-04-15T10:24:05;100781.81;;;18.33;
46015;BME280;36844;51.898;-0.874;2023-04-15T10:26:31;100789.13;;;18.33;
46015;BME280;36844;51.898;-0.874;2023-04-15T10:28:56;100793.38;;;18.34;
46015;BME280;36844;51.898;-0.874;2023-04-15T10:31:22;100794.53;;;18.33;
46015;BME280;36844;51.898;-0.874;2023-04-15T10:33:47;100804.97;;;18.34;
46015;BME280;36844;51.898;-0.874;2023-04-15T10:36:13;100803.03;;;18.35;
46015;BME280;36844;51.898;-0.874;2023-04-15T10:38:43;100813.81;;;18.35;
46015;BME280;36844;51.898;-0.874;2023-04-15T10:41:22;100818.44;;;18.34;
46015;BME280;36844;51.898;-0.874;2023-04-15T10:43:55;100819.97;;;18.35;
46015;BME280;36844;51.898;-0.874;2023-04-15T10:48:51;100817.66;;;18.34;
46015;BME280;36844;51.898;-0.874;2023-04-15T10:51:25;100828.44;;;18.34;
46015;BME280;36844;51.898;-0.874;2023-04-15T10:53:50;100825.75;;;18.34;
46015;BME280;36844;51.898;-0.874;2023-04-15T10:56:19;100826.91;;;18.33;
46015;BME280;36844;51.898;-0.874;2023-04-15T10:58:45;100835.41;;;18.31;
46015;BME280;36844;51.898;-0.874;2023-04-15T11:01:10;100841.94;;;18.30;
46015;BME280;36844;51.898;-0.874;2023-04-15T11:03:38;100842.31;;;18.29;
46015;BME280;36844;51.898;-0.874;2023-04-15T11:06:03;100850.81;;;18.27;
46015;BME280;36844;51.898;-0.874;2023-04-15T11:14:17;100861.97;;;18.22;
46015;BME280;36844;51.898;-0.874;2023-04-15T11:16:42;100863.88;;;18.22;
46015;BME280;36844;51.898;-0.874;2023-04-15T11:19:11;100868.50;;;18.21;
46015;BME280;36844;51.898;-0.874;2023-04-15T11:21:36;100866.59;;;18.22;
46015;BME280;36844;51.898;-0.874;2023-04-15T11:24:01;100875.09;;;18.20;
46015;BME280;36844;51.898;-0.874;2023-04-15T11:26:27;100875.81;;;18.21;
46015;BME280;36844;51.898;-0.874;2023-04-15T11:28:53;100879.72;;;18.20;
46015;BME280;36844;51.898;-0.874;2023-04-15T11:31:18;100881.22;;;18.21;
46015;BME280;36844;51.898;-0.874;2023-04-15T11:33:52;100879.28;;;18.21;
46015;BME280;36844;51.898;-0.874;2023-04-15T11:36:18;100888.16;;;18.22;
46015;BME280;36844;51.898;-0.874;2023-04-15T11:38:43;100895.09;;;18.23;
46015;BME280;36844;51.898;-0.874;2023-04-15T11:41:10;100898.16;;;18.25;
46015;BME280;36844;51.898;-0.874;2023-04-15T11:43:35;100897.00;;;18.26;
46015;BME280;36844;51.898;-0.874;2023-04-15T11:46:01;100893.97;;;18.27;
46015;BME280;36844;51.898;-0.874;2023-04-15T11:48:27;100901.63;;;18.29;
46015;BME280;36844;51.898;-0.874;2023-04-15T11:50:57;100911.66;;;18.32;
46015;BME280;36844;51.898;-0.874;2023-04-15T11:53:23;100908.56;;;18.33;
46015;BME280;36844;51.898;-0.874;2023-04-15T11:55:51;100907.00;;;18.36;
46015;BME280;36844;51.898;-0.874;2023-04-15T11:58:18;100904.72;;;18.38;
46015;BME280;36844;51.898;-0.874;2023-04-15T12:00:47;100907.78;;;18.40;
46015;BME280;36844;51.898;-0.874;2023-04-15T12:03:15;100907.81;;;18.43;
46015;BME280;36844;51.898;-0.874;2023-04-15T12:08:25;100924.00;;;18.47;
46015;BME280;36844;51.898;-0.874;2023-04-15T12:10:51;100925.50;;;18.48;
46015;BME280;36844;51.898;-0.874;2023-04-15T12:13:22;100929.38;;;18.50;
46015;BME280;36844;51.898;-0.874;2023-04-15T12:15:48;100929.00;;;18.52;
46015;BME280;36844;51.898;-0.874;2023-04-15T12:18:17;100927.81;;;18.53;
46015;BME280;36844;51.898;-0.874;2023-04-15T12:20:43;100934.78;;;18.54;
46015;BME280;36844;51.898;-0.874;2023-04-15T12:23:08;100938.25;;;18.54;
46015;BME280;36844;51.898;-0.874;2023-04-15T12:25:34;100940.56;;;18.56;
46015;BME280;36844;51.898;-0.874;2023-04-15T12:27:59;100948.66;;;18.56;
46015;BME280;36844;51.898;-0.874;2023-04-15T12:30:25;100938.59;;;18.56;
46015;BME280;36844;51.898;-0.874;2023-04-15T12:32:50;100939.38;;;18.57;
46015;BME280;36844;51.898;-0.874;2023-04-15T12:35:16;100940.94;;;18.58;
46015;BME280;36844;51.898;-0.874;2023-04-15T12:37:46;100936.69;;;18.57;
46015;BME280;36844;51.898;-0.874;2023-04-15T12:40:11;100948.25;;;18.57;
46015;BME280;36844;51.898;-0.874;2023-04-15T12:42:36;100950.16;;;18.57;
46015;BME280;36844;51.898;-0.874;2023-04-15T12:45:01;100942.06;;;18.57;
46015;BME280;36844;51.898;-0.874;2023-04-15T12:47:27;100946.69;;;18.56;
46015;BME280;36844;51.898;-0.874;2023-04-15T12:49:52;100945.56;;;18.57;
46015;BME280;36844;51.898;-0.874;2023-04-15T12:52:17;100945.94;;;18.56;
46015;BME280;36844;51.898;-0.874;2023-04-15T12:54:42;100947.88;;;18.55;
46015;BME280;36844;51.898;-0.874;2023-04-15T12:57:08;100948.66;;;18.56;
46015;BME280;36844;51.898;-0.874;2023-04-15T12:59:34;100952.50;;;18.55;
46015;BME280;36844;51.898;-0.874;2023-04-15T13:01:59;100955.22;;;18.55;
46015;BME280;36844;51.898;-0.874;2023-04-15T13:04:25;100961.34;;;18.55;
46015;BME280;36844;51.898;-0.874;2023-04-15T13:06:54;100970.63;;;18.54;
46015;BME280;36844;51.898;-0.874;2023-04-15T13:09:20;100977.94;;;18.54;
46015;BME280;36844;51.898;-0.874;2023-04-15T13:11:45;100984.47;;;18.53;
46015;BME280;36844;51.898;-0.874;2023-04-15T13:14:10;100981.78;;;18.53;
46015;BME280;36844;51.898;-0.874;2023-04-15T13:16:36;100986.41;;;18.52;
46015;BME280;36844;51.898;-0.874;2023-04-15T13:19:02;100985.63;;;18.52;
46015;BME280;36844;51.898;-0.874;2023-04-15T13:21:27;100994.91;;;18.51;
46015;BME280;36844;51.898;-0.874;2023-04-15T13:23:53;101001.44;;;18.50;
46015;BME280;36844;51.898;-0.874;2023-04-15T13:26:18;100997.97;;;18.49;
46015;BME280;36844;51.898;-0.874;2023-04-15T13:28:43;101001.03;;;18.48;
46015;BME280;36844;51.898;-0.874;2023-04-15T13:31:09;101009.91;;;18.48;
46015;BME280;36844;51.898;-0.874;2023-04-15T13:33:34;101010.31;;;18.47;
46015;BME280;36844;51.898;-0.874;2023-04-15T13:35:59;101012.63;;;18.45;
46015;BME280;36844;51.898;-0.874;2023-04-15T13:38:25;101011.06;;;18.44;
46015;BME280;36844;51.898;-0.874;2023-04-15T13:40:50;101014.91;;;18.43;
46015;BME280;36844;51.898;-0.874;2023-04-15T13:43:15;101008.00;;;18.42;